sensor_id;sensor_type;location;lat;lon;timestamp;pressure;altitude;pressure_sealevel;temperature;humidity
51530;BME280;37613;51.788;21.582;2024-02-14T00:01:23;100518.28;;;3.46;99.74
51530;BME280;37613;51.788;21.582;2024-02-14T00:05:25;100521.68;;;3.45;99.83
51530;BME280;37613;51.788;21.582;2024-02-14T00:09:27;100525.99;;;3.45;99.83
51530;BME280;37613;51.788;21.582;2024-02-14T00:13:29;100531.52;;;3.44;99.93
51530;BME280;37613;51.788;21.582;2024-02-14T00:17:32;100534.70;;;3.44;100.00
51530;BME280;37613;51.788;21.582;2024-02-14T00:21:35;100535.94;;;3.43;99.95
51530;BME280;37613;51.788;21.582;2024-02-14T00:25:37;100534.77;;;3.43;99.98
51530;BME280;37613;51.788;21.582;2024-02-14T00:29:40;100536.10;;;3.43;99.99
51530;BME280;37613;51.788;21.582;2024-02-14T00:33:42;100535.09;;;3.42;99.99
51530;BME280;37613;51.788;21.582;2024-02-14T00:37:43;100538.19;;;3.41;100.00
51530;BME280;37613;51.788;21.582;2024-02-14T00:41:46;100539.16;;;3.40;100.00
51530;BME280;37613;51.788;21.582;2024-02-14T00:45:48;100541.02;;;3.39;100.00
51530;BME280;37613;51.788;21.582;2024-02-14T00:49:50;100543.68;;;3.39;100.00
51530;BME280;37613;51.788;21.582;2024-02-14T00:53:53;100542.86;;;3.41;100.00
51530;BME280;37613;51.788;21.582;2024-02-14T00:57:55;100545.77;;;3.42;100.00
51530;BME280;37613;51.788;21.582;2024-02-14T01:01:57;100547.71;;;3.41;100.00
51530;BME280;37613;51.788;21.582;2024-02-14T01:06:02;100548.16;;;3.40;100.00
51530;BME280;37613;51.788;21.582;2024-02-14T01:10:05;100547.33;;;3.39;100.00
51530;BME280;37613;51.788;21.582;2024-02-14T01:14:07;100552.81;;;3.39;100.00
51530;BME280;37613;51.788;21.582;2024-02-14T01:18:09;100557.05;;;3.37;100.00
51530;BME280;37613;51.788;21.582;2024-02-14T01:22:11;100560.11;;;3.35;100.00
51530;BME280;37613;51.788;21.582;2024-02-14T01:26:13;100560.65;;;3.33;100.00
51530;BME280;37613;51.788;21.582;2024-02-14T01:30:16;100557.95;;;3.31;100.00
51530;BME280;37613;51.788;21.582;2024-02-14T01:34:18;100556.50;;;3.30;100.00
51530;BME280;37613;51.788;21.582;2024-02-14T01:38:20;100555.85;;;3.29;100.00
51530;BME280;37613;51.788;21.582;2024-02-14T01:42:22;100561.20;;;3.28;100.00
51530;BME280;37613;51.788;21.582;2024-02-14T01:46:24;100558.73;;;3.29;100.00
51530;BME280;37613;51.788;21.582;2024-02-14T01:50:25;100562.43;;;3.30;100.00
51530;BME280;37613;51.788;21.582;2024-02-14T01:54:31;100566.10;;;3.29;100.00
51530;BME280;37613;51.788;21.582;2024-02-14T01:58:33;100570.92;;;3.29;100.00
51530;BME280;37613;51.788;21.582;2024-02-14T02:02:35;100571.20;;;3.28;100.00
51530;BME280;37613;51.788;21.582;2024-02-14T02:06:41;100571.75;;;3.26;100.00
51530;BME280;37613;51.788;21.582;2024-02-14T02:10:43;100576.01;;;3.27;100.00
51530;BME280;37613;51.788;21.582;2024-02-14T02:14:45;100575.80;;;3.27;100.00
51530;BME280;37613;51.788;21.582;2024-02-14T02:18:47;100575.35;;;3.28;100.00
51530;BME280;37613;51.788;21.582;2024-02-14T02:22:50;100580.11;;;3.26;100.00
51530;BME280;37613;51.788;21.582;2024-02-14T02:26:51;100585.00;;;3.25;100.00
51530;BME280;37613;51.788;21.582;2024-02-14T02:30:53;100590.80;;;3.26;100.00
51530;BME280;37613;51.788;21.582;2024-02-14T02:34:57;100589.77;;;3.25;100.00
51530;BME280;37613;51.788;21.582;2024-02-14T02:38:59;100599.31;;;3.26;100.00
51530;BME280;37613;51.788;21.582;2024-02-14T02:43:02;100605.40;;;3.27;100.00
51530;BME280;37613;51.788;21.582;2024-02-14T02:47:04;100611.85;;;3.29;100.00
51530;BME280;37613;51.788;21.582;2024-02-14T02:51:06;100614.02;;;3.28;100.00
51530;BME280;37613;51.788;21.582;2024-02-14T02:55:08;100615.77;;;3.25;100.00
51530;BME280;37613;51.788;21.582;2024-02-14T02:59:10;100617.50;;;3.23;100.00
51530;BME280;37613;51.788;21.582;2024-02-14T03:03:12;100615.95;;;3.23;100.00
51530;BME280;37613;51.788;21.582;2024-02-14T03:07:14;100614.09;;;3.23;100.00
51530;BME280;37613;51.788;21.582;2024-02-14T03:11:15;100611.90;;;3.24;100.00
51530;BME280;37613;51.788;21.582;2024-02-14T03:15:17;100615.89;;;3.24;100.00
51530;BME280;37613;51.788;21.582;2024-02-14T03:19:20;100620.42;;;3.21;100.00
51530;BME280;37613;51.788;21.582;2024-02-14T03:23:24;100622.31;;;3.18;100.00
51530;BME280;37613;51.788;21.582;2024-02-14T03:27:25;100622.96;;;3.14;100.00
51530;BME280;37613;51.788;21.582;2024-02-14T03:31:28;100628.67;;;3.08;100.00
51530;BME280;37613;51.788;21.582;2024-02-14T03:35:30;100635.62;;;3.03;100.00
51530;BME280;37613;51.788;21.582;2024-02-14T03:39:32;100634.77;;;3.01;100.00
51530;BME280;37613;51.788;21.582;2024-02-14T03:43:34;100636.36;;;3.00;100.00
51530;BME280;37613;51.788;21.582;2024-02-14T03:47:36;100641.41;;;2.99;100.00
51530;BME280;37613;51.788;21.582;2024-02-14T03:51:41;100644.88;;;3.00;100.00
51530;BME280;37613;51.788;21.582;2024-02-14T03:55:43;100649.05;;;3.01;100.00
51530;BME280;37613;51.788;21.582;2024-02-14T03:59:45;100649.70;;;3.02;100.00
51530;BME280;37613;51.788;21.582;2024-02-14T04:03:47;100648.03;;;3.03;100.00
51530;BME280;37613;51.788;21.582;2024-02-14T04:07:50;100653.70;;;3.06;100.00
51530;BME280;37613;51.788;21.582;2024-02-14T04:11:53;100652.79;;;3.05;100.00
51530;BME280;37613;51.788;21.582;2024-02-14T04:15:55;100655.58;;;3.00;100.00
51530;BME280;37613;51.788;21.582;2024-02-14T04:19:57;100659.29;;;2.97;100.00
51530;BME280;37613;51.788;21.582;2024-02-14T04:23:59;100662.30;;;2.96;100.00
51530;BME280;37613;51.788;21.582;2024-02-14T04:28:02;100664.82;;;2.95;100.00
51530;BME280;37613;51.788;21.582;2024-02-14T04:32:04;100670.37;;;2.93;100.00
51530;BME280;37613;51.788;21.582;2024-02-14T04:36:06;100668.50;;;2.93;100.00
51530;BME280;37613;51.788;21.582;2024-02-14T04:40:08;100674.88;;;2.92;100.00
51530;BME280;37613;51.788;21.582;2024-02-14T04:44:10;100673.23;;;2.92;100.00
51530;BME280;37613;51.788;21.582;2024-02-14T04:48:12;100681.14;;;2.93;100.00
51530;BME280;37613;51.788;21.582;2024-02-14T04:52:13;100679.59;;;2.93;100.00
51530;BME280;37613;51.788;21.582;2024-02-14T04:56:16;100678.41;;;2.93;100.00
51530;BME280;37613;51.788;21.582;2024-02-14T05:00:18;100675.22;;;2.93;100.00
51530;BME280;37613;51.788;21.582;2024-02-14T05:04:20;100678.71;;;2.95;100.00
51530;BME280;37613;51.788;21.582;2024-02-14T05:08:22;100685.18;;;2.96;100.00
51530;BME280;37613;51.788;21.582;2024-02-14T05:12:24;100689.07;;;2.96;100.00
51530;BME280;37613;51.788;21.582;2024-02-14T05:16:26;100687.63;;;2.91;100.00
51530;BME280;37613;51.788;21.582;2024-02-14T05:20:29;100690.38;;;2.83;100.00
51530;BME280;37613;51.788;21.582;2024-02-14T05:24:31;100685.80;;;2.80;100.00
51530;BME280;37613;51.788;21.582;2024-02-14T05:28:32;100692.39;;;2.76;100.00
51530;BME280;37613;51.788;21.582;2024-02-14T05:32:34;100700.66;;;2.74;100.00
51530;BME280;37613;51.788;21.582;2024-02-14T05:36:36;100701.69;;;2.75;100.00
51530;BME280;37613;51.788;21.582;2024-02-14T05:40:38;100700.46;;;2.84;100.00
51530;BME280;37613;51.788;21.582;2024-02-14T05:44:41;100708.51;;;2.83;100.00
51530;BME280;37613;51.788;21.582;2024-02-14T05:48:44;100712.55;;;2.81;100.00
51530;BME280;37613;51.788;21.582;2024-02-14T05:52:46;100715.12;;;2.79;100.00
51530;BME280;37613;51.788;21.582;2024-02-14T05:56:48;100719.74;;;2.75;100.00
51530;BME280;37613;51.788;21.582;2024-02-14T06:00:49;100729.11;;;2.71;100.00
51530;BME280;37613;51.788;21.582;2024-02-14T06:04:51;100729.78;;;2.68;100.00
51530;BME280;37613;51.788;21.582;2024-02-14T06:08:53;100737.41;;;2.68;100.00
51530;BME280;37613;51.788;21.582;2024-02-14T06:12:56;100739.05;;;2.68;100.00
51530;BME280;37613;51.788;21.582;2024-02-14T06:16:58;100734.90;;;2.68;100.00
51530;BME280;37613;51.788;21.582;2024-02-14T06:21:00;100738.45;;;2.69;100.00
51530;BME280;37613;51.788;21.582;2024-02-14T06:25:03;100744.30;;;2.70;100.00
51530;BME280;37613;51.788;21.582;2024-02-14T06:29:06;100741.76;;;2.73;100.00
51530;BME280;37613;51.788;21.582;2024-02-14T06:33:08;100743.73;;;2.75;100.00
51530;BME280;37613;51.788;21.582;2024-02-14T06:37:10;100740.42;;;2.79;100.00
51530;BME280;37613;51.788;21.582;2024-02-14T06:41:12;100744.05;;;2.82;100.00
51530;BME280;37613;51.788;21.582;2024-02-14T06:45:14;100746.63;;;2.86;100.00
51530;BME280;37613;51.788;21.582;2024-02-14T06:49:19;100749.95;;;2.95;100.00
51530;BME280;37613;51.788;21.582;2024-02-14T06:53:21;100751.35;;;3.02;100.00
51530;BME280;37613;51.788;21.582;2024-02-14T06:57:23;100749.52;;;3.12;100.00
51530;BME280;37613;51.788;21.582;2024-02-14T07:01:26;100750.66;;;3.23;100.00
51530;BME280;37613;51.788;21.582;2024-02-14T07:05:28;100753.70;;;3.34;100.00
51530;BME280;37613;51.788;21.582;2024-02-14T07:09:30;100751.77;;;3.42;100.00
51530;BME280;37613;51.788;21.582;2024-02-14T07:13:32;100748.90;;;3.51;100.00
51530;BME280;37613;51.788;21.582;2024-02-14T07:17:34;100751.77;;;3.64;100.00
51530;BME280;37613;51.788;21.582;2024-02-14T07:21:35;100749.10;;;3.81;100.00
51530;BME280;37613;51.788;21.582;2024-02-14T07:25:39;100745.14;;;3.98;100.00
51530;BME280;37613;51.788;21.582;2024-02-14T07:29:41;100742.45;;;4.17;100.00
51530;BME280;37613;51.788;21.582;2024-02-14T07:33:42;100745.78;;;4.33;100.00
51530;BME280;37613;51.788;21.582;2024-02-14T07:37:46;100749.27;;;4.43;100.00
51530;BME280;37613;51.788;21.582;2024-02-14T07:41:49;100749.87;;;4.49;100.00
51530;BME280;37613;51.788;21.582;2024-02-14T07:45:51;100753.01;;;4.57;100.00
51530;BME280;37613;51.788;21.582;2024-02-14T07:49:53;100754.58;;;4.66;100.00
51530;BME280;37613;51.788;21.582;2024-02-14T07:53:54;100758.02;;;4.78;100.00
51530;BME280;37613;51.788;21.582;2024-02-14T07:57:57;100759.72;;;4.97;100.00
51530;BME280;37613;51.788;21.582;2024-02-14T08:01:59;100758.48;;;5.16;100.00
51530;BME280;37613;51.788;21.582;2024-02-14T08:06:00;100761.56;;;5.40;100.00
51530;BME280;37613;51.788;21.582;2024-02-14T08:10:02;100762.69;;;5.68;100.00
51530;BME280;37613;51.788;21.582;2024-02-14T08:14:04;100763.55;;;5.90;100.00
51530;BME280;37613;51.788;21.582;2024-02-14T08:18:07;100762.48;;;6.09;100.00
51530;BME280;37613;51.788;21.582;2024-02-14T08:22:08;100764.13;;;6.26;100.00
51530;BME280;37613;51.788;21.582;2024-02-14T08:26:10;100761.16;;;6.42;100.00
51530;BME280;37613;51.788;21.582;2024-02-14T08:30:12;100755.23;;;6.56;100.00
51530;BME280;37613;51.788;21.582;2024-02-14T08:34:14;100761.05;;;6.69;100.00
51530;BME280;37613;51.788;21.582;2024-02-14T08:38:16;100761.48;;;6.81;100.00
51530;BME280;37613;51.788;21.582;2024-02-14T08:42:19;100758.10;;;6.93;100.00
51530;BME280;37613;51.788;21.582;2024-02-14T08:46:20;100755.58;;;7.08;100.00
51530;BME280;37613;51.788;21.582;2024-02-14T08:50:22;100757.91;;;7.20;100.00
51530;BME280;37613;51.788;21.582;2024-02-14T08:54:24;100761.24;;;7.43;100.00
51530;BME280;37613;51.788;21.582;2024-02-14T08:58:26;100759.80;;;7.61;100.00
51530;BME280;37613;51.788;21.582;2024-02-14T09:02:28;100761.49;;;7.74;100.00
51530;BME280;37613;51.788;21.582;2024-02-14T09:06:29;100760.88;;;7.84;100.00
51530;BME280;37613;51.788;21.582;2024-02-14T09:10:31;100758.14;;;7.88;100.00
51530;BME280;37613;51.788;21.582;2024-02-14T09:14:33;100756.17;;;7.96;99.88
51530;BME280;37613;51.788;21.582;2024-02-14T09:18:35;100755.30;;;8.08;99.94
51530;BME280;37613;51.788;21.582;2024-02-14T09:22:37;100757.05;;;8.15;99.52
51530;BME280;37613;51.788;21.582;2024-02-14T09:26:39;100757.73;;;8.20;98.85
51530;BME280;37613;51.788;21.582;2024-02-14T09:30:42;100760.86;;;8.24;94.28
51530;BME280;37613;51.788;21.582;2024-02-14T09:34:43;100759.58;;;8.26;97.29
51530;BME280;37613;51.788;21.582;2024-02-14T09:38:47;100753.73;;;8.33;96.88
51530;BME280;37613;51.788;21.582;2024-02-14T09:42:53;100752.73;;;8.43;98.22
51530;BME280;37613;51.788;21.582;2024-02-14T09:46:55;100755.13;;;8.54;93.75
51530;BME280;37613;51.788;21.582;2024-02-14T09:50:57;100755.05;;;8.59;90.97
51530;BME280;37613;51.788;21.582;2024-02-14T09:55:00;100754.60;;;8.66;92.84
51530;BME280;37613;51.788;21.582;2024-02-14T09:59:04;100759.61;;;8.73;91.14
51530;BME280;37613;51.788;21.582;2024-02-14T10:03:07;100760.30;;;8.77;88.93
51530;BME280;37613;51.788;21.582;2024-02-14T10:07:10;100757.20;;;8.80;91.00
51530;BME280;37613;51.788;21.582;2024-02-14T10:11:12;100757.59;;;8.80;88.30
51530;BME280;37613;51.788;21.582;2024-02-14T10:15:16;100760.70;;;8.77;87.90
51530;BME280;37613;51.788;21.582;2024-02-14T10:19:18;100760.35;;;8.80;90.11
51530;BME280;37613;51.788;21.582;2024-02-14T10:23:20;100757.05;;;8.81;89.78
51530;BME280;37613;51.788;21.582;2024-02-14T10:27:22;100760.05;;;8.71;89.41
51530;BME280;37613;51.788;21.582;2024-02-14T10:31:25;100756.05;;;8.63;88.59
51530;BME280;37613;51.788;21.582;2024-02-14T10:35:27;100753.80;;;8.69;89.83
51530;BME280;37613;51.788;21.582;2024-02-14T10:39:31;100749.75;;;8.78;87.84
51530;BME280;37613;51.788;21.582;2024-02-14T10:43:33;100746.41;;;8.67;87.94
51530;BME280;37613;51.788;21.582;2024-02-14T10:47:35;100737.80;;;8.65;89.36
51530;BME280;37613;51.788;21.582;2024-02-14T10:51:38;100733.67;;;8.68;88.71
51530;BME280;37613;51.788;21.582;2024-02-14T10:55:40;100731.02;;;8.79;89.30
51530;BME280;37613;51.788;21.582;2024-02-14T10:59:44;100730.64;;;8.85;85.86
51530;BME280;37613;51.788;21.582;2024-02-14T11:03:48;100728.17;;;8.89;87.13
51530;BME280;37613;51.788;21.582;2024-02-14T11:07:50;100726.72;;;8.98;85.59
51530;BME280;37613;51.788;21.582;2024-02-14T11:11:58;100730.10;;;9.08;84.88
51530;BME280;37613;51.788;21.582;2024-02-14T11:16:02;100728.91;;;9.13;84.66
51530;BME280;37613;51.788;21.582;2024-02-14T11:20:15;100728.52;;;9.13;82.96
51530;BME280;37613;51.788;21.582;2024-02-14T11:24:18;100724.39;;;9.12;83.78
51530;BME280;37613;51.788;21.582;2024-02-14T11:28:24;100718.75;;;9.20;83.62
51530;BME280;37613;51.788;21.582;2024-02-14T11:32:27;100722.08;;;9.20;81.31
51530;BME280;37613;51.788;21.582;2024-02-14T11:36:29;100719.58;;;9.11;78.84
51530;BME280;37613;51.788;21.582;2024-02-14T11:40:32;100711.59;;;9.10;81.10
51530;BME280;37613;51.788;21.582;2024-02-14T11:44:34;100708.33;;;9.14;80.78
51530;BME280;37613;51.788;21.582;2024-02-14T11:48:39;100703.54;;;9.04;77.03
51530;BME280;37613;51.788;21.582;2024-02-14T11:52:41;100700.54;;;9.03;78.54
51530;BME280;37613;51.788;21.582;2024-02-14T11:56:43;100699.75;;;8.92;76.41
51530;BME280;37613;51.788;21.582;2024-02-14T12:00:45;100696.69;;;8.71;77.57
51530;BME280;37613;51.788;21.582;2024-02-14T12:04:48;100697.79;;;8.56;77.05
51530;BME280;37613;51.788;21.582;2024-02-14T12:08:52;100699.32;;;8.43;76.34
51530;BME280;37613;51.788;21.582;2024-02-14T12:12:54;100696.94;;;8.38;77.69
51530;BME280;37613;51.788;21.582;2024-02-14T12:16:59;100701.05;;;8.42;78.28
51530;BME280;37613;51.788;21.582;2024-02-14T12:21:04;100696.55;;;8.57;78.50
51530;BME280;37613;51.788;21.582;2024-02-14T12:25:09;100695.92;;;8.63;77.95
51530;BME280;37613;51.788;21.582;2024-02-14T12:29:12;100694.54;;;8.55;77.70
51530;BME280;37613;51.788;21.582;2024-02-14T12:33:17;100699.47;;;8.48;78.96
51530;BME280;37613;51.788;21.582;2024-02-14T12:37:19;100697.70;;;8.46;77.61
51530;BME280;37613;51.788;21.582;2024-02-14T12:41:22;100692.79;;;8.43;78.49
51530;BME280;37613;51.788;21.582;2024-02-14T12:45:33;100687.30;;;8.46;78.00
51530;BME280;37613;51.788;21.582;2024-02-14T12:49:35;100686.02;;;8.45;78.06
51530;BME280;37613;51.788;21.582;2024-02-14T12:53:37;100687.71;;;8.47;76.97
51530;BME280;37613;51.788;21.582;2024-02-14T12:57:40;100686.54;;;8.52;75.30
51530;BME280;37613;51.788;21.582;2024-02-14T13:01:42;100685.88;;;8.60;75.45
51530;BME280;37613;51.788;21.582;2024-02-14T13:05:45;100687.45;;;8.70;77.08
51530;BME280;37613;51.788;21.582;2024-02-14T13:09:49;100689.90;;;8.71;76.66
51530;BME280;37613;51.788;21.582;2024-02-14T13:13:52;100688.23;;;8.70;75.19
51530;BME280;37613;51.788;21.582;2024-02-14T13:17:54;100688.73;;;8.72;77.46
51530;BME280;37613;51.788;21.582;2024-02-14T13:21:58;100680.19;;;8.74;77.49
51530;BME280;37613;51.788;21.582;2024-02-14T13:25:59;100682.23;;;8.75;75.00
51530;BME280;37613;51.788;21.582;2024-02-14T13:30:05;100685.38;;;8.75;75.96
51530;BME280;37613;51.788;21.582;2024-02-14T13:34:08;100686.84;;;8.72;76.34
51530;BME280;37613;51.788;21.582;2024-02-14T13:38:10;100683.97;;;8.64;75.88
51530;BME280;37613;51.788;21.582;2024-02-14T13:42:12;100689.08;;;8.63;75.10
51530;BME280;37613;51.788;21.582;2024-02-14T13:46:14;100685.09;;;8.56;74.31
51530;BME280;37613;51.788;21.582;2024-02-14T13:50:16;100686.83;;;8.50;73.03
51530;BME280;37613;51.788;21.582;2024-02-14T13:54:18;100688.61;;;8.44;71.32
51530;BME280;37613;51.788;21.582;2024-02-14T13:58:22;100689.52;;;8.36;72.64
51530;BME280;37613;51.788;21.582;2024-02-14T14:02:24;100690.90;;;8.31;73.56
51530;BME280;37613;51.788;21.582;2024-02-14T14:06:26;100690.11;;;8.26;73.33
51530;BME280;37613;51.788;21.582;2024-02-14T14:10:28;100690.05;;;8.23;73.91
51530;BME280;37613;51.788;21.582;2024-02-14T14:14:30;100688.96;;;8.19;74.23
51530;BME280;37613;51.788;21.582;2024-02-14T14:18:31;100686.77;;;8.11;71.16
51530;BME280;37613;51.788;21.582;2024-02-14T14:22:34;100693.30;;;8.01;72.36
51530;BME280;37613;51.788;21.582;2024-02-14T14:26:36;100692.55;;;7.95;73.11
51530;BME280;37613;51.788;21.582;2024-02-14T14:30:39;100693.31;;;7.89;73.01
51530;BME280;37613;51.788;21.582;2024-02-14T14:34:41;100691.21;;;7.82;72.45
51530;BME280;37613;51.788;21.582;2024-02-14T14:38:43;100692.04;;;7.76;72.64
51530;BME280;37613;51.788;21.582;2024-02-14T14:42:45;100695.31;;;7.66;72.23
51530;BME280;37613;51.788;21.582;2024-02-14T14:46:47;100698.35;;;7.56;73.08
51530;BME280;37613;51.788;21.582;2024-02-14T14:50:49;100696.41;;;7.50;73.49
51530;BME280;37613;51.788;21.582;2024-02-14T14:54:50;100699.02;;;7.47;73.42
51530;BME280;37613;51.788;21.582;2024-02-14T14:58:53;100698.49;;;7.44;73.63
51530;BME280;37613;51.788;21.582;2024-02-14T15:02:55;100696.41;;;7.38;73.66
51530;BME280;37613;51.788;21.582;2024-02-14T15:06:56;100696.65;;;7.31;73.59
51530;BME280;37613;51.788;21.582;2024-02-14T15:10:59;100699.44;;;7.21;73.34
51530;BME280;37613;51.788;21.582;2024-02-14T15:15:01;100697.91;;;7.12;73.54
51530;BME280;37613;51.788;21.582;2024-02-14T15:19:03;100699.58;;;7.02;73.48
51530;BME280;37613;51.788;21.582;2024-02-14T15:23:05;100696.02;;;6.90;73.68
51530;BME280;37613;51.788;21.582;2024-02-14T15:27:08;100695.34;;;6.78;73.96
51530;BME280;37613;51.788;21.582;2024-02-14T15:31:12;100689.48;;;6.62;73.88
51530;BME280;37613;51.788;21.582;2024-02-14T15:35:32;100681.38;;;6.55;74.85
51530;BME280;37613;51.788;21.582;2024-02-14T15:39:35;100683.00;;;6.44;74.49
51530;BME280;37613;51.788;21.582;2024-02-14T15:43:36;100688.98;;;6.25;74.47
51530;BME280;37613;51.788;21.582;2024-02-14T15:47:38;100691.85;;;6.06;74.53
51530;BME280;37613;51.788;21.582;2024-02-14T15:51:40;100694.36;;;5.85;74.56
51530;BME280;37613;51.788;21.582;2024-02-14T15:55:42;100695.79;;;5.65;74.62
51530;BME280;37613;51.788;21.582;2024-02-14T15:59:44;100697.64;;;5.45;74.72
51530;BME280;37613;51.788;21.582;2024-02-14T16:03:46;100705.80;;;5.26;74.81
51530;BME280;37613;51.788;21.582;2024-02-14T16:07:49;100710.30;;;5.09;74.86
51530;BME280;37613;51.788;21.582;2024-02-14T16:11:51;100710.14;;;4.90;74.96
51530;BME280;37613;51.788;21.582;2024-02-14T16:15:52;100708.04;;;4.73;75.04
51530;BME280;37613;51.788;21.582;2024-02-14T16:19:55;100712.88;;;4.56;75.06
51530;BME280;37613;51.788;21.582;2024-02-14T16:23:57;100713.24;;;4.38;75.06
51530;BME280;37613;51.788;21.582;2024-02-14T16:27:59;100715.05;;;4.21;75.27
51530;BME280;37613;51.788;21.582;2024-02-14T16:32:01;100717.08;;;4.05;75.56
51530;BME280;37613;51.788;21.582;2024-02-14T16:36:02;100717.23;;;3.93;75.95
51530;BME280;37613;51.788;21.582;2024-02-14T16:40:04;100721.90;;;3.84;75.92
51530;BME280;37613;51.788;21.582;2024-02-14T16:44:08;100723.79;;;3.73;76.08
51530;BME280;37613;51.788;21.582;2024-02-14T16:48:10;100727.94;;;3.65;76.30
51530;BME280;37613;51.788;21.582;2024-02-14T16:52:12;100729.88;;;3.57;76.55
51530;BME280;37613;51.788;21.582;2024-02-14T16:56:13;100736.18;;;3.52;76.62
51530;BME280;37613;51.788;21.582;2024-02-14T17:00:16;100734.77;;;3.48;76.78
51530;BME280;37613;51.788;21.582;2024-02-14T17:04:17;100730.30;;;3.41;76.94
51530;BME280;37613;51.788;21.582;2024-02-14T17:08:19;100730.68;;;3.36;77.16
51530;BME280;37613;51.788;21.582;2024-02-14T17:12:21;100733.30;;;3.31;77.21
51530;BME280;37613;51.788;21.582;2024-02-14T17:16:23;100736.17;;;3.27;77.40
51530;BME280;37613;51.788;21.582;2024-02-14T17:20:24;100741.37;;;3.22;77.52
51530;BME280;37613;51.788;21.582;2024-02-14T17:24:26;100743.93;;;3.15;77.55
51530;BME280;37613;51.788;21.582;2024-02-14T17:28:29;100743.73;;;3.07;77.61
51530;BME280;37613;51.788;21.582;2024-02-14T17:32:31;100747.47;;;3.01;77.77
51530;BME280;37613;51.788;21.582;2024-02-14T17:36:36;100747.37;;;2.97;78.05
51530;BME280;37613;51.788;21.582;2024-02-14T17:40:38;100748.59;;;2.90;78.12
51530;BME280;37613;51.788;21.582;2024-02-14T17:44:40;100742.99;;;2.91;79.25
51530;BME280;37613;51.788;21.582;2024-02-14T17:48:42;100744.41;;;2.93;78.81
51530;BME280;37613;51.788;21.582;2024-02-14T17:52:43;100749.55;;;2.91;78.74
51530;BME280;37613;51.788;21.582;2024-02-14T17:56:46;100752.56;;;2.89;78.83
51530;BME280;37613;51.788;21.582;2024-02-14T18:00:48;100754.80;;;2.91;79.08
51530;BME280;37613;51.788;21.582;2024-02-14T18:04:50;100753.70;;;2.93;79.09
51530;BME280;37613;51.788;21.582;2024-02-14T18:08:55;100753.52;;;2.96;79.13
51530;BME280;37613;51.788;21.582;2024-02-14T18:12:58;100755.48;;;3.00;79.30
51530;BME280;37613;51.788;21.582;2024-02-14T18:17:00;100753.14;;;3.04;79.34
51530;BME280;37613;51.788;21.582;2024-02-14T18:21:02;100751.23;;;3.10;79.37
51530;BME280;37613;51.788;21.582;2024-02-14T18:25:05;100755.95;;;3.15;79.29
51530;BME280;37613;51.788;21.582;2024-02-14T18:29:08;100756.90;;;3.19;79.31
51530;BME280;37613;51.788;21.582;2024-02-14T18:33:11;100760.43;;;3.21;79.35
51530;BME280;37613;51.788;21.582;2024-02-14T18:37:13;100761.19;;;3.23;79.58
51530;BME280;37613;51.788;21.582;2024-02-14T18:41:15;100762.64;;;3.26;79.68
51530;BME280;37613;51.788;21.582;2024-02-14T18:45:17;100759.34;;;3.29;79.90
51530;BME280;37613;51.788;21.582;2024-02-14T18:49:19;100757.95;;;3.32;80.00
51530;BME280;37613;51.788;21.582;2024-02-14T18:53:21;100756.07;;;3.36;79.86
51530;BME280;37613;51.788;21.582;2024-02-14T18:57:23;100752.20;;;3.40;79.92
51530;BME280;37613;51.788;21.582;2024-02-14T19:01:25;100756.14;;;3.43;80.06
51530;BME280;37613;51.788;21.582;2024-02-14T19:05:27;100760.02;;;3.46;80.08
51530;BME280;37613;51.788;21.582;2024-02-14T19:09:29;100770.27;;;3.49;80.24
51530;BME280;37613;51.788;21.582;2024-02-14T19:13:30;100769.55;;;3.52;80.40
51530;BME280;37613;51.788;21.582;2024-02-14T19:17:33;100766.14;;;3.55;80.47
51530;BME280;37613;51.788;21.582;2024-02-14T19:21:35;100772.78;;;3.59;80.54
51530;BME280;37613;51.788;21.582;2024-02-14T19:25:37;100773.66;;;3.61;80.61
51530;BME280;37613;51.788;21.582;2024-02-14T19:29:39;100769.63;;;3.65;80.64
51530;BME280;37613;51.788;21.582;2024-02-14T19:33:40;100773.55;;;3.67;80.72
51530;BME280;37613;51.788;21.582;2024-02-14T19:37:44;100774.95;;;3.69;80.74
51530;BME280;37613;51.788;21.582;2024-02-14T19:41:46;100775.58;;;3.70;80.87
51530;BME280;37613;51.788;21.582;2024-02-14T19:45:50;100774.17;;;3.69;80.92
51530;BME280;37613;51.788;21.582;2024-02-14T19:49:52;100776.54;;;3.70;81.11
51530;BME280;37613;51.788;21.582;2024-02-14T19:53:54;100777.77;;;3.70;81.06
51530;BME280;37613;51.788;21.582;2024-02-14T19:57:56;100777.07;;;3.70;81.19
51530;BME280;37613;51.788;21.582;2024-02-14T20:01:58;100775.63;;;3.69;81.40
51530;BME280;37613;51.788;21.582;2024-02-14T20:05:59;100768.67;;;3.69;81.49
51530;BME280;37613;51.788;21.582;2024-02-14T20:10:04;100766.88;;;3.69;81.46
51530;BME280;37613;51.788;21.582;2024-02-14T20:14:07;100761.28;;;3.68;81.41
51530;BME280;37613;51.788;21.582;2024-02-14T20:18:09;100763.41;;;3.66;81.50
51530;BME280;37613;51.788;21.582;2024-02-14T20:22:11;100766.32;;;3.66;81.57
51530;BME280;37613;51.788;21.582;2024-02-14T20:26:13;100764.25;;;3.66;81.66
51530;BME280;37613;51.788;21.582;2024-02-14T20:30:17;100760.79;;;3.66;81.67
51530;BME280;37613;51.788;21.582;2024-02-14T20:34:19;100763.02;;;3.66;81.67
51530;BME280;37613;51.788;21.582;2024-02-14T20:38:21;100764.33;;;3.67;81.74
51530;BME280;37613;51.788;21.582;2024-02-14T20:42:23;100763.75;;;3.69;81.72
51530;BME280;37613;51.788;21.582;2024-02-14T20:46:26;100760.20;;;3.70;81.83
51530;BME280;37613;51.788;21.582;2024-02-14T20:50:28;100762.43;;;3.71;81.86
51530;BME280;37613;51.788;21.582;2024-02-14T20:54:31;100763.84;;;3.73;81.94
51530;BME280;37613;51.788;21.582;2024-02-14T20:58:34;100758.60;;;3.76;81.78